sensor_id;sensor_type;location;lat;lon;timestamp;temperature;humidity
26304;DHT22;57113;48.680;8.890;2022-11-14T00:01:25;12.90;99.90
26304;DHT22;57113;48.680;8.890;2022-11-14T00:03:51;12.90;99.90
26304;DHT22;57113;48.680;8.890;2022-11-14T00:06:16;12.90;99.90
26304;DHT22;57113;48.680;8.890;2022-11-14T00:08:42;12.90;99.90
26304;DHT22;57113;48.680;8.890;2022-11-14T00:11:07;12.90;99.90
26304;DHT22;57113;48.680;8.890;2022-11-14T00:13:34;12.90;99.90
26304;DHT22;57113;48.680;8.890;2022-11-14T00:15:59;12.90;99.90
26304;DHT22;57113;48.680;8.890;2022-11-14T00:18:25;12.90;99.90
26304;DHT22;57113;48.680;8.890;2022-11-14T00:20:51;12.90;99.90
26304;DHT22;57113;48.680;8.890;2022-11-14T00:23:17;12.90;99.90
26304;DHT22;57113;48.680;8.890;2022-11-14T00:25:43;12.90;99.90
26304;DHT22;57113;48.680;8.890;2022-11-14T00:28:09;12.90;99.90
26304;DHT22;57113;48.680;8.890;2022-11-14T00:30:35;12.90;99.90
26304;DHT22;57113;48.680;8.890;2022-11-14T00:33:00;12.90;99.90
26304;DHT22;57113;48.680;8.890;2022-11-14T00:35:26;12.90;99.90
26304;DHT22;57113;48.680;8.890;2022-11-14T00:37:51;12.90;99.90
26304;DHT22;57113;48.680;8.890;2022-11-14T00:40:17;12.90;99.90
26304;DHT22;57113;48.680;8.890;2022-11-14T00:42:42;12.90;99.90
26304;DHT22;57113;48.680;8.890;2022-11-14T00:45:09;12.90;99.90
26304;DHT22;57113;48.680;8.890;2022-11-14T00:47:34;12.90;99.90
26304;DHT22;57113;48.680;8.890;2022-11-14T00:50:00;12.90;99.90
26304;DHT22;57113;48.680;8.890;2022-11-14T00:52:25;12.90;99.90
26304;DHT22;57113;48.680;8.890;2022-11-14T00:54:51;12.80;99.90
26304;DHT22;57113;48.680;8.890;2022-11-14T00:57:16;12.80;99.90
26304;DHT22;57113;48.680;8.890;2022-11-14T00:59:42;12.80;99.90
26304;DHT22;57113;48.680;8.890;2022-11-14T01:02:07;12.90;99.90
26304;DHT22;57113;48.680;8.890;2022-11-14T01:04:33;12.80;99.90
26304;DHT22;57113;48.680;8.890;2022-11-14T01:06:58;12.80;99.90
26304;DHT22;57113;48.680;8.890;2022-11-14T01:09:24;12.80;99.90
26304;DHT22;57113;48.680;8.890;2022-11-14T01:11:49;12.80;99.90
26304;DHT22;57113;48.680;8.890;2022-11-14T01:14:15;12.80;99.90
26304;DHT22;57113;48.680;8.890;2022-11-14T01:16:41;12.80;99.90
26304;DHT22;57113;48.680;8.890;2022-11-14T01:19:07;12.80;99.90
26304;DHT22;57113;48.680;8.890;2022-11-14T01:21:32;12.80;99.90
26304;DHT22;57113;48.680;8.890;2022-11-14T01:23:57;12.80;99.90
26304;DHT22;57113;48.680;8.890;2022-11-14T01:26:23;12.80;99.90
26304;DHT22;57113;48.680;8.890;2022-11-14T01:28:48;12.80;99.90
26304;DHT22;57113;48.680;8.890;2022-11-14T01:31:15;12.80;99.90
26304;DHT22;57113;48.680;8.890;2022-11-14T01:33:42;12.80;99.90
26304;DHT22;57113;48.680;8.890;2022-11-14T01:36:08;12.80;99.90
26304;DHT22;57113;48.680;8.890;2022-11-14T01:38:33;12.80;99.90
26304;DHT22;57113;48.680;8.890;2022-11-14T01:40:59;12.80;99.90
26304;DHT22;57113;48.680;8.890;2022-11-14T01:43:26;12.80;99.90
26304;DHT22;57113;48.680;8.890;2022-11-14T01:45:59;12.70;99.90
26304;DHT22;57113;48.680;8.890;2022-11-14T01:53:59;12.70;99.90
26304;DHT22;57113;48.680;8.890;2022-11-14T01:56:37;12.70;99.90
26304;DHT22;57113;48.680;8.890;2022-11-14T01:59:07;12.70;99.90
26304;DHT22;57113;48.680;8.890;2022-11-14T02:01:34;12.70;99.90
26304;DHT22;57113;48.680;8.890;2022-11-14T02:04:01;12.70;99.90
26304;DHT22;57113;48.680;8.890;2022-11-14T02:06:29;12.70;99.90
26304;DHT22;57113;48.680;8.890;2022-11-14T02:08:55;12.70;99.90
26304;DHT22;57113;48.680;8.890;2022-11-14T02:11:22;12.80;99.90
26304;DHT22;57113;48.680;8.890;2022-11-14T02:13:47;12.70;99.90
26304;DHT22;57113;48.680;8.890;2022-11-14T02:16:13;12.70;99.90
26304;DHT22;57113;48.680;8.890;2022-11-14T02:18:39;12.70;99.90
26304;DHT22;57113;48.680;8.890;2022-11-14T02:21:05;12.70;99.90
26304;DHT22;57113;48.680;8.890;2022-11-14T02:23:31;12.80;99.90
26304;DHT22;57113;48.680;8.890;2022-11-14T02:25:57;12.70;99.90
26304;DHT22;57113;48.680;8.890;2022-11-14T02:28:23;12.70;99.90
26304;DHT22;57113;48.680;8.890;2022-11-14T02:30:49;12.70;99.90
26304;DHT22;57113;48.680;8.890;2022-11-14T02:33:15;12.70;99.90
26304;DHT22;57113;48.680;8.890;2022-11-14T02:35:40;12.70;99.90
26304;DHT22;57113;48.680;8.890;2022-11-14T02:38:06;12.70;99.90
26304;DHT22;57113;48.680;8.890;2022-11-14T02:40:32;12.70;99.90
26304;DHT22;57113;48.680;8.890;2022-11-14T02:42:57;12.70;99.90
26304;DHT22;57113;48.680;8.890;2022-11-14T02:45:23;12.70;99.90
26304;DHT22;57113;48.680;8.890;2022-11-14T02:47:48;12.70;99.90
26304;DHT22;57113;48.680;8.890;2022-11-14T02:50:14;12.70;99.90
26304;DHT22;57113;48.680;8.890;2022-11-14T02:52:39;12.70;99.90
26304;DHT22;57113;48.680;8.890;2022-11-14T02:55:07;12.70;99.90
26304;DHT22;57113;48.680;8.890;2022-11-14T02:57:32;12.70;99.90
26304;DHT22;57113;48.680;8.890;2022-11-14T02:59:58;12.70;99.90
26304;DHT22;57113;48.680;8.890;2022-11-14T03:02:23;12.70;99.90
26304;DHT22;57113;48.680;8.890;2022-11-14T03:04:49;12.70;99.90
26304;DHT22;57113;48.680;8.890;2022-11-14T03:07:14;12.70;99.90
26304;DHT22;57113;48.680;8.890;2022-11-14T03:09:40;12.70;99.90
26304;DHT22;57113;48.680;8.890;2022-11-14T03:12:05;12.70;99.90
26304;DHT22;57113;48.680;8.890;2022-11-14T03:14:31;12.70;99.90
26304;DHT22;57113;48.680;8.890;2022-11-14T03:16:57;12.70;99.90
26304;DHT22;57113;48.680;8.890;2022-11-14T03:19:22;12.70;99.90
26304;DHT22;57113;48.680;8.890;2022-11-14T03:21:47;12.70;99.90
26304;DHT22;57113;48.680;8.890;2022-11-14T03:24:13;12.60;99.90
26304;DHT22;57113;48.680;8.890;2022-11-14T03:26:38;12.70;99.90
26304;DHT22;57113;48.680;8.890;2022-11-14T03:29:04;12.70;99.90
26304;DHT22;57113;48.680;8.890;2022-11-14T03:31:30;12.60;99.70
26304;DHT22;57113;48.680;8.890;2022-11-14T03:33:55;12.30;99.60
26304;DHT22;57113;48.680;8.890;2022-11-14T03:36:21;12.20;99.90
26304;DHT22;57113;48.680;8.890;2022-11-14T03:38:46;12.20;99.90
26304;DHT22;57113;48.680;8.890;2022-11-14T03:41:12;12.20;99.90
26304;DHT22;57113;48.680;8.890;2022-11-14T03:43:38;12.30;99.90
26304;DHT22;57113;48.680;8.890;2022-11-14T03:46:03;12.30;99.90
26304;DHT22;57113;48.680;8.890;2022-11-14T03:48:29;12.30;99.90
26304;DHT22;57113;48.680;8.890;2022-11-14T03:50:55;12.30;99.90
26304;DHT22;57113;48.680;8.890;2022-11-14T03:53:21;12.10;99.30
26304;DHT22;57113;48.680;8.890;2022-11-14T03:55:46;12.00;99.60
26304;DHT22;57113;48.680;8.890;2022-11-14T03:58:12;11.90;99.90
26304;DHT22;57113;48.680;8.890;2022-11-14T04:00:37;12.00;99.90
26304;DHT22;57113;48.680;8.890;2022-11-14T04:03:03;12.00;99.90
26304;DHT22;57113;48.680;8.890;2022-11-14T04:05:29;12.00;99.90
26304;DHT22;57113;48.680;8.890;2022-11-14T04:07:54;12.10;99.90
26304;DHT22;57113;48.680;8.890;2022-11-14T04:10:20;12.10;99.90
26304;DHT22;57113;48.680;8.890;2022-11-14T04:12:46;12.10;99.90
26304;DHT22;57113;48.680;8.890;2022-11-14T04:15:12;12.10;99.90
26304;DHT22;57113;48.680;8.890;2022-11-14T04:17:37;12.10;99.90
26304;DHT22;57113;48.680;8.890;2022-11-14T04:20:03;12.10;99.90
26304;DHT22;57113;48.680;8.890;2022-11-14T04:22:28;12.20;99.90
26304;DHT22;57113;48.680;8.890;2022-11-14T04:24:54;12.20;99.90
26304;DHT22;57113;48.680;8.890;2022-11-14T04:27:19;12.20;99.90
26304;DHT22;57113;48.680;8.890;2022-11-14T04:29:45;12.20;99.90
26304;DHT22;57113;48.680;8.890;2022-11-14T04:32:10;12.20;99.90
26304;DHT22;57113;48.680;8.890;2022-11-14T04:34:36;12.20;99.90
26304;DHT22;57113;48.680;8.890;2022-11-14T04:37:01;12.20;99.90
26304;DHT22;57113;48.680;8.890;2022-11-14T04:39:27;12.20;99.90
26304;DHT22;57113;48.680;8.890;2022-11-14T04:41:52;12.20;99.90
26304;DHT22;57113;48.680;8.890;2022-11-14T04:44:18;12.20;99.90
26304;DHT22;57113;48.680;8.890;2022-11-14T04:46:43;12.20;99.90
26304;DHT22;57113;48.680;8.890;2022-11-14T04:49:09;12.20;99.90
26304;DHT22;57113;48.680;8.890;2022-11-14T04:51:34;12.20;99.90
26304;DHT22;57113;48.680;8.890;2022-11-14T04:54:00;12.20;99.90
26304;DHT22;57113;48.680;8.890;2022-11-14T04:56:26;12.20;99.90
26304;DHT22;57113;48.680;8.890;2022-11-14T04:58:51;12.20;99.90
26304;DHT22;57113;48.680;8.890;2022-11-14T05:01:17;12.20;99.90
26304;DHT22;57113;48.680;8.890;2022-11-14T05:03:42;12.20;99.90
26304;DHT22;57113;48.680;8.890;2022-11-14T05:06:08;12.20;99.90
26304;DHT22;57113;48.680;8.890;2022-11-14T05:08:33;12.20;99.90
26304;DHT22;57113;48.680;8.890;2022-11-14T05:10:59;12.20;99.90
26304;DHT22;57113;48.680;8.890;2022-11-14T05:13:24;12.30;99.90
26304;DHT22;57113;48.680;8.890;2022-11-14T05:15:50;12.20;99.90
26304;DHT22;57113;48.680;8.890;2022-11-14T05:18:15;12.20;99.90
26304;DHT22;57113;48.680;8.890;2022-11-14T05:20:41;12.20;99.90
26304;DHT22;57113;48.680;8.890;2022-11-14T05:23:10;12.20;99.90
26304;DHT22;57113;48.680;8.890;2022-11-14T05:25:42;12.30;99.90
26304;DHT22;57113;48.680;8.890;2022-11-14T05:28:08;12.30;99.90
26304;DHT22;57113;48.680;8.890;2022-11-14T05:30:34;12.30;99.90
26304;DHT22;57113;48.680;8.890;2022-11-14T05:32:59;12.30;99.90
26304;DHT22;57113;48.680;8.890;2022-11-14T05:35:25;12.20;99.90
26304;DHT22;57113;48.680;8.890;2022-11-14T05:37:50;12.30;99.90
26304;DHT22;57113;48.680;8.890;2022-11-14T05:40:16;12.30;99.90
26304;DHT22;57113;48.680;8.890;2022-11-14T05:42:43;12.30;99.90
26304;DHT22;57113;48.680;8.890;2022-11-14T05:45:09;12.30;99.90
26304;DHT22;57113;48.680;8.890;2022-11-14T05:47:34;12.30;99.90
26304;DHT22;57113;48.680;8.890;2022-11-14T05:50:00;12.30;99.90
26304;DHT22;57113;48.680;8.890;2022-11-14T05:52:26;12.30;99.90
26304;DHT22;57113;48.680;8.890;2022-11-14T05:54:51;12.30;99.90
26304;DHT22;57113;48.680;8.890;2022-11-14T05:57:17;12.30;99.90
26304;DHT22;57113;48.680;8.890;2022-11-14T05:59:42;12.30;99.90
26304;DHT22;57113;48.680;8.890;2022-11-14T06:02:08;12.30;99.90
26304;DHT22;57113;48.680;8.890;2022-11-14T06:04:33;12.30;99.90
26304;DHT22;57113;48.680;8.890;2022-11-14T06:06:59;12.30;99.90
26304;DHT22;57113;48.680;8.890;2022-11-14T06:09:24;12.30;99.90
26304;DHT22;57113;48.680;8.890;2022-11-14T06:11:50;12.20;99.90
26304;DHT22;57113;48.680;8.890;2022-11-14T06:14:15;12.30;99.90
26304;DHT22;57113;48.680;8.890;2022-11-14T06:16:41;12.30;99.90
26304;DHT22;57113;48.680;8.890;2022-11-14T06:19:06;12.20;99.90
26304;DHT22;57113;48.680;8.890;2022-11-14T06:21:32;12.30;99.90
26304;DHT22;57113;48.680;8.890;2022-11-14T06:23:57;12.20;99.90
26304;DHT22;57113;48.680;8.890;2022-11-14T06:26:24;12.30;99.90
26304;DHT22;57113;48.680;8.890;2022-11-14T06:28:50;12.20;99.90
26304;DHT22;57113;48.680;8.890;2022-11-14T06:31:16;12.20;99.90
26304;DHT22;57113;48.680;8.890;2022-11-14T06:33:42;12.30;99.90
26304;DHT22;57113;48.680;8.890;2022-11-14T06:36:07;12.30;99.90
26304;DHT22;57113;48.680;8.890;2022-11-14T06:38:34;12.20;99.90
26304;DHT22;57113;48.680;8.890;2022-11-14T06:43:35;12.20;99.90
26304;DHT22;57113;48.680;8.890;2022-11-14T06:46:01;12.30;99.90
26304;DHT22;57113;48.680;8.890;2022-11-14T06:48:27;12.20;99.90
26304;DHT22;57113;48.680;8.890;2022-11-14T06:50:53;12.20;99.90
26304;DHT22;57113;48.680;8.890;2022-11-14T06:53:19;12.20;99.90
26304;DHT22;57113;48.680;8.890;2022-11-14T06:55:54;12.20;99.90
26304;DHT22;57113;48.680;8.890;2022-11-14T06:58:20;12.20;99.90
26304;DHT22;57113;48.680;8.890;2022-11-14T07:00:46;12.20;99.90
26304;DHT22;57113;48.680;8.890;2022-11-14T07:03:11;12.20;99.90
26304;DHT22;57113;48.680;8.890;2022-11-14T07:05:37;12.20;99.90
26304;DHT22;57113;48.680;8.890;2022-11-14T07:08:02;12.20;99.90
26304;DHT22;57113;48.680;8.890;2022-11-14T07:10:28;12.20;99.90
26304;DHT22;57113;48.680;8.890;2022-11-14T07:12:53;12.20;99.90
26304;DHT22;57113;48.680;8.890;2022-11-14T07:15:19;12.20;99.90
26304;DHT22;57113;48.680;8.890;2022-11-14T07:17:44;12.20;99.90
26304;DHT22;57113;48.680;8.890;2022-11-14T07:20:13;12.20;99.90
26304;DHT22;57113;48.680;8.890;2022-11-14T07:22:39;12.20;99.90
26304;DHT22;57113;48.680;8.890;2022-11-14T07:25:04;12.20;99.90
26304;DHT22;57113;48.680;8.890;2022-11-14T07:27:30;12.20;99.90
26304;DHT22;57113;48.680;8.890;2022-11-14T07:29:55;12.20;99.90
26304;DHT22;57113;48.680;8.890;2022-11-14T07:32:21;12.20;99.90
26304;DHT22;57113;48.680;8.890;2022-11-14T07:34:46;12.10;99.90
26304;DHT22;57113;48.680;8.890;2022-11-14T07:37:12;12.20;99.90
26304;DHT22;57113;48.680;8.890;2022-11-14T07:39:37;12.20;99.90
26304;DHT22;57113;48.680;8.890;2022-11-14T07:42:03;12.10;99.90
26304;DHT22;57113;48.680;8.890;2022-11-14T07:44:28;12.10;99.90
26304;DHT22;57113;48.680;8.890;2022-11-14T07:46:54;12.10;99.90
26304;DHT22;57113;48.680;8.890;2022-11-14T07:49:19;12.10;99.90
26304;DHT22;57113;48.680;8.890;2022-11-14T07:51:45;12.20;99.90
26304;DHT22;57113;48.680;8.890;2022-11-14T07:54:10;12.10;99.90
26304;DHT22;57113;48.680;8.890;2022-11-14T07:56:37;12.10;99.90
26304;DHT22;57113;48.680;8.890;2022-11-14T07:59:02;12.20;99.90
26304;DHT22;57113;48.680;8.890;2022-11-14T08:01:28;12.20;99.90
26304;DHT22;57113;48.680;8.890;2022-11-14T08:03:53;12.20;99.90
26304;DHT22;57113;48.680;8.890;2022-11-14T08:06:19;12.20;99.90
26304;DHT22;57113;48.680;8.890;2022-11-14T08:08:44;12.20;99.90
26304;DHT22;57113;48.680;8.890;2022-11-14T08:11:10;12.20;99.90
26304;DHT22;57113;48.680;8.890;2022-11-14T08:13:36;12.20;99.90
26304;DHT22;57113;48.680;8.890;2022-11-14T08:16:08;12.20;99.90
26304;DHT22;57113;48.680;8.890;2022-11-14T08:18:34;12.20;99.90
26304;DHT22;57113;48.680;8.890;2022-11-14T08:21:02;12.20;99.90
26304;DHT22;57113;48.680;8.890;2022-11-14T08:23:27;12.20;99.90
26304;DHT22;57113;48.680;8.890;2022-11-14T08:25:53;12.20;99.90
26304;DHT22;57113;48.680;8.890;2022-11-14T08:28:18;12.20;99.90
26304;DHT22;57113;48.680;8.890;2022-11-14T08:30:44;12.20;99.90
26304;DHT22;57113;48.680;8.890;2022-11-14T08:33:09;12.20;99.90
26304;DHT22;57113;48.680;8.890;2022-11-14T08:35:35;12.20;99.90
26304;DHT22;57113;48.680;8.890;2022-11-14T08:38:01;12.30;99.90
26304;DHT22;57113;48.680;8.890;2022-11-14T08:40:27;12.30;99.90
26304;DHT22;57113;48.680;8.890;2022-11-14T08:42:57;12.30;99.90
26304;DHT22;57113;48.680;8.890;2022-11-14T08:45:23;12.30;99.90
26304;DHT22;57113;48.680;8.890;2022-11-14T08:47:52;12.30;99.90
26304;DHT22;57113;48.680;8.890;2022-11-14T08:50:17;12.30;99.90
26304;DHT22;57113;48.680;8.890;2022-11-14T08:52:47;12.30;99.90
26304;DHT22;57113;48.680;8.890;2022-11-14T08:55:13;12.30;99.90
26304;DHT22;57113;48.680;8.890;2022-11-14T08:57:38;12.30;99.90
26304;DHT22;57113;48.680;8.890;2022-11-14T09:00:04;12.30;99.90
26304;DHT22;57113;48.680;8.890;2022-11-14T09:02:30;12.30;99.90
26304;DHT22;57113;48.680;8.890;2022-11-14T09:04:55;12.30;99.90
26304;DHT22;57113;48.680;8.890;2022-11-14T09:07:21;12.30;99.90
26304;DHT22;57113;48.680;8.890;2022-11-14T09:09:46;12.30;99.90
26304;DHT22;57113;48.680;8.890;2022-11-14T09:12:12;12.30;99.90
26304;DHT22;57113;48.680;8.890;2022-11-14T09:14:38;12.30;99.90
26304;DHT22;57113;48.680;8.890;2022-11-14T09:17:03;12.30;99.90
26304;DHT22;57113;48.680;8.890;2022-11-14T09:19:29;12.30;99.90
26304;DHT22;57113;48.680;8.890;2022-11-14T09:21:54;12.20;99.90
26304;DHT22;57113;48.680;8.890;2022-11-14T09:24:20;12.20;99.90
26304;DHT22;57113;48.680;8.890;2022-11-14T09:26:45;12.20;99.90
26304;DHT22;57113;48.680;8.890;2022-11-14T09:29:13;12.20;99.90
26304;DHT22;57113;48.680;8.890;2022-11-14T09:31:40;12.20;99.90
26304;DHT22;57113;48.680;8.890;2022-11-14T09:34:05;12.20;99.90
26304;DHT22;57113;48.680;8.890;2022-11-14T09:36:31;12.20;99.90
26304;DHT22;57113;48.680;8.890;2022-11-14T09:38:56;12.20;99.90
26304;DHT22;57113;48.680;8.890;2022-11-14T09:44:11;12.20;99.90
26304;DHT22;57113;48.680;8.890;2022-11-14T09:46:44;12.20;99.90
26304;DHT22;57113;48.680;8.890;2022-11-14T09:49:10;12.20;99.90
26304;DHT22;57113;48.680;8.890;2022-11-14T09:51:46;12.20;99.90
26304;DHT22;57113;48.680;8.890;2022-11-14T09:54:21;12.20;99.90
26304;DHT22;57113;48.680;8.890;2022-11-14T09:56:47;12.20;99.90
26304;DHT22;57113;48.680;8.890;2022-11-14T09:59:13;12.20;99.90
26304;DHT22;57113;48.680;8.890;2022-11-14T10:01:56;12.20;99.90
26304;DHT22;57113;48.680;8.890;2022-11-14T10:12:03;12.30;99.90
26304;DHT22;57113;48.680;8.890;2022-11-14T10:19:37;12.30;99.90
26304;DHT22;57113;48.680;8.890;2022-11-14T10:22:20;12.30;99.90
26304;DHT22;57113;48.680;8.890;2022-11-14T10:27:30;12.30;99.90
26304;DHT22;57113;48.680;8.890;2022-11-14T10:30:16;12.30;99.90
26304;DHT22;57113;48.680;8.890;2022-11-14T10:35:30;12.30;99.90
26304;DHT22;57113;48.680;8.890;2022-11-14T10:43:02;12.30;99.90
26304;DHT22;57113;48.680;8.890;2022-11-14T10:45:33;12.30;99.90
26304;DHT22;57113;48.680;8.890;2022-11-14T10:48:42;12.20;99.90
26304;DHT22;57113;48.680;8.890;2022-11-14T10:50:53;12.30;99.90
26304;DHT22;57113;48.680;8.890;2022-11-14T10:55:49;12.30;99.90
26304;DHT22;57113;48.680;8.890;2022-11-14T10:58:15;12.30;99.90
26304;DHT22;57113;48.680;8.890;2022-11-14T11:00:41;12.30;99.90
26304;DHT22;57113;48.680;8.890;2022-11-14T11:03:07;12.30;99.90
26304;DHT22;57113;48.680;8.890;2022-11-14T11:05:43;12.30;99.90
26304;DHT22;57113;48.680;8.890;2022-11-14T11:08:09;12.30;99.90
26304;DHT22;57113;48.680;8.890;2022-11-14T11:10:54;12.30;99.90
26304;DHT22;57113;48.680;8.890;2022-11-14T11:13:50;12.30;99.90
26304;DHT22;57113;48.680;8.890;2022-11-14T11:16:18;12.30;99.90
26304;DHT22;57113;48.680;8.890;2022-11-14T11:18:44;12.30;99.90
26304;DHT22;57113;48.680;8.890;2022-11-14T11:21:13;12.30;99.90
26304;DHT22;57113;48.680;8.890;2022-11-14T11:23:49;12.30;99.90
26304;DHT22;57113;48.680;8.890;2022-11-14T11:28:44;12.30;99.90
26304;DHT22;57113;48.680;8.890;2022-11-14T11:31:24;12.30;99.90
26304;DHT22;57113;48.680;8.890;2022-11-14T11:33:50;12.30;99.90
26304;DHT22;57113;48.680;8.890;2022-11-14T11:36:20;12.30;99.90
26304;DHT22;57113;48.680;8.890;2022-11-14T11:38:47;12.30;99.90
26304;DHT22;57113;48.680;8.890;2022-11-14T11:41:30;12.30;99.90
26304;DHT22;57113;48.680;8.890;2022-11-14T11:43:58;12.30;99.90
26304;DHT22;57113;48.680;8.890;2022-11-14T11:46:43;12.30;99.90
26304;DHT22;57113;48.680;8.890;2022-11-14T11:49:34;12.30;99.90
26304;DHT22;57113;48.680;8.890;2022-11-14T11:51:58;12.30;99.90
26304;DHT22;57113;48.680;8.890;2022-11-14T11:54:27;12.30;99.90
26304;DHT22;57113;48.680;8.890;2022-11-14T11:56:54;12.30;99.90
26304;DHT22;57113;48.680;8.890;2022-11-14T11:59:28;12.30;99.90
26304;DHT22;57113;48.680;8.890;2022-11-14T12:01:59;12.30;99.90
26304;DHT22;57113;48.680;8.890;2022-11-14T12:04:25;12.30;99.90
26304;DHT22;57113;48.680;8.890;2022-11-14T12:06:53;12.30;99.90
26304;DHT22;57113;48.680;8.890;2022-11-14T12:09:28;12.30;99.90
26304;DHT22;57113;48.680;8.890;2022-11-14T12:11:56;12.20;99.90
26304;DHT22;57113;48.680;8.890;2022-11-14T12:27:19;12.30;99.90
26304;DHT22;57113;48.680;8.890;2022-11-14T12:32:17;12.30;99.90
26304;DHT22;57113;48.680;8.890;2022-11-14T12:34:44;12.30;99.90
26304;DHT22;57113;48.680;8.890;2022-11-14T12:37:20;12.40;99.90
26304;DHT22;57113;48.680;8.890;2022-11-14T12:40:05;12.40;99.90
26304;DHT22;57113;48.680;8.890;2022-11-14T12:42:31;12.40;99.90
26304;DHT22;57113;48.680;8.890;2022-11-14T12:44:58;12.40;99.90
26304;DHT22;57113;48.680;8.890;2022-11-14T12:47:24;12.40;99.90
26304;DHT22;57113;48.680;8.890;2022-11-14T12:55:02;12.40;99.90
26304;DHT22;57113;48.680;8.890;2022-11-14T12:57:37;12.40;99.90
26304;DHT22;57113;48.680;8.890;2022-11-14T13:00:14;12.40;99.90
26304;DHT22;57113;48.680;8.890;2022-11-14T13:03:26;12.40;99.90
26304;DHT22;57113;48.680;8.890;2022-11-14T13:05:39;12.40;99.90
26304;DHT22;57113;48.680;8.890;2022-11-14T13:10:37;12.40;99.90
26304;DHT22;57113;48.680;8.890;2022-11-14T13:13:10;12.40;99.90
26304;DHT22;57113;48.680;8.890;2022-11-14T13:15:55;12.40;99.90
26304;DHT22;57113;48.680;8.890;2022-11-14T13:18:52;12.40;99.90
26304;DHT22;57113;48.680;8.890;2022-11-14T13:21:37;12.40;99.90
26304;DHT22;57113;48.680;8.890;2022-11-14T13:24:15;12.40;99.90
26304;DHT22;57113;48.680;8.890;2022-11-14T13:29:07;12.40;99.90
26304;DHT22;57113;48.680;8.890;2022-11-14T13:36:50;12.40;99.90
26304;DHT22;57113;48.680;8.890;2022-11-14T13:47:16;12.50;99.90
26304;DHT22;57113;48.680;8.890;2022-11-14T13:49:52;12.50;99.90
26304;DHT22;57113;48.680;8.890;2022-11-14T13:52:20;12.60;99.90
26304;DHT22;57113;48.680;8.890;2022-11-14T13:54:47;12.60;99.90
26304;DHT22;57113;48.680;8.890;2022-11-14T14:00:07;12.60;99.90
26304;DHT22;57113;48.680;8.890;2022-11-14T14:02:47;12.60;99.90
26304;DHT22;57113;48.680;8.890;2022-11-14T14:05:30;12.60;99.90
26304;DHT22;57113;48.680;8.890;2022-11-14T14:08:00;12.60;99.90
26304;DHT22;57113;48.680;8.890;2022-11-14T14:10:36;12.50;99.90
26304;DHT22;57113;48.680;8.890;2022-11-14T14:15:43;12.50;99.90
26304;DHT22;57113;48.680;8.890;2022-11-14T14:20:42;12.50;99.90
26304;DHT22;57113;48.680;8.890;2022-11-14T14:25:40;12.40;99.90
26304;DHT22;57113;48.680;8.890;2022-11-14T14:28:10;12.40;99.90
26304;DHT22;57113;48.680;8.890;2022-11-14T14:30:39;12.50;99.90
26304;DHT22;57113;48.680;8.890;2022-11-14T14:33:09;12.40;99.90
26304;DHT22;57113;48.680;8.890;2022-11-14T14:35:35;12.40;99.90
26304;DHT22;57113;48.680;8.890;2022-11-14T14:38:02;12.40;99.90
26304;DHT22;57113;48.680;8.890;2022-11-14T14:40:28;12.40;99.90
26304;DHT22;57113;48.680;8.890;2022-11-14T14:42:55;12.40;99.90
26304;DHT22;57113;48.680;8.890;2022-11-14T14:45:24;12.40;99.90
26304;DHT22;57113;48.680;8.890;2022-11-14T14:48:12;12.40;99.90
26304;DHT22;57113;48.680;8.890;2022-11-14T14:50:37;12.40;99.90
26304;DHT22;57113;48.680;8.890;2022-11-14T14:53:04;12.40;99.90
26304;DHT22;57113;48.680;8.890;2022-11-14T14:55:30;12.40;99.90
26304;DHT22;57113;48.680;8.890;2022-11-14T15:00:48;12.40;99.90
26304;DHT22;57113;48.680;8.890;2022-11-14T15:03:14;12.40;99.90
26304;DHT22;57113;48.680;8.890;2022-11-14T15:05:40;12.40;99.90
26304;DHT22;57113;48.680;8.890;2022-11-14T15:08:10;12.40;99.90
26304;DHT22;57113;48.680;8.890;2022-11-14T15:10:36;12.40;99.90
26304;DHT22;57113;48.680;8.890;2022-11-14T15:13:02;12.40;99.90
26304;DHT22;57113;48.680;8.890;2022-11-14T15:15:27;12.40;99.90
26304;DHT22;57113;48.680;8.890;2022-11-14T15:17:54;12.40;99.90
26304;DHT22;57113;48.680;8.890;2022-11-14T15:20:21;12.40;99.90
26304;DHT22;57113;48.680;8.890;2022-11-14T15:25:31;12.40;99.90
26304;DHT22;57113;48.680;8.890;2022-11-14T15:27:56;12.40;99.90
26304;DHT22;57113;48.680;8.890;2022-11-14T15:30:33;12.40;99.90
26304;DHT22;57113;48.680;8.890;2022-11-14T15:33:00;12.40;99.90
26304;DHT22;57113;48.680;8.890;2022-11-14T15:35:36;12.40;99.90
26304;DHT22;57113;48.680;8.890;2022-11-14T15:38:03;12.40;99.90
26304;DHT22;57113;48.680;8.890;2022-11-14T15:40:30;12.40;99.90
26304;DHT22;57113;48.680;8.890;2022-11-14T15:42:55;12.40;99.90
26304;DHT22;57113;48.680;8.890;2022-11-14T15:45:21;12.40;99.90
26304;DHT22;57113;48.680;8.890;2022-11-14T15:47:47;12.40;99.90
26304;DHT22;57113;48.680;8.890;2022-11-14T15:50:22;12.50;99.90
26304;DHT22;57113;48.680;8.890;2022-11-14T15:52:50;12.50;99.90
26304;DHT22;57113;48.680;8.890;2022-11-14T15:55:19;12.50;99.90
26304;DHT22;57113;48.680;8.890;2022-11-14T15:57:45;12.50;99.90
26304;DHT22;57113;48.680;8.890;2022-11-14T16:00:12;12.50;99.90
26304;DHT22;57113;48.680;8.890;2022-11-14T16:02:56;12.50;99.90
26304;DHT22;57113;48.680;8.890;2022-11-14T16:05:28;12.50;99.90
26304;DHT22;57113;48.680;8.890;2022-11-14T16:07:54;12.50;99.90
26304;DHT22;57113;48.680;8.890;2022-11-14T16:10:20;12.50;99.90
26304;DHT22;57113;48.680;8.890;2022-11-14T16:12:46;12.50;99.90
26304;DHT22;57113;48.680;8.890;2022-11-14T16:15:12;12.50;99.90
26304;DHT22;57113;48.680;8.890;2022-11-14T16:17:38;12.50;99.90
26304;DHT22;57113;48.680;8.890;2022-11-14T16:20:05;12.50;99.90
26304;DHT22;57113;48.680;8.890;2022-11-14T16:22:30;12.50;99.90
26304;DHT22;57113;48.680;8.890;2022-11-14T16:24:58;12.50;99.90
26304;DHT22;57113;48.680;8.890;2022-11-14T16:27:23;12.50;99.90
26304;DHT22;57113;48.680;8.890;2022-11-14T16:29:49;12.40;99.90
26304;DHT22;57113;48.680;8.890;2022-11-14T16:32:14;12.50;99.90
26304;DHT22;57113;48.680;8.890;2022-11-14T16:34:40;12.50;99.90
26304;DHT22;57113;48.680;8.890;2022-11-14T16:37:08;12.50;99.90
26304;DHT22;57113;48.680;8.890;2022-11-14T16:39:35;12.50;99.90
26304;DHT22;57113;48.680;8.890;2022-11-14T16:42:02;12.40;99.90
26304;DHT22;57113;48.680;8.890;2022-11-14T16:44:28;12.40;99.90
26304;DHT22;57113;48.680;8.890;2022-11-14T16:46:53;12.40;99.90
26304;DHT22;57113;48.680;8.890;2022-11-14T16:49:19;12.40;99.90
26304;DHT22;57113;48.680;8.890;2022-11-14T16:51:46;12.40;99.90
26304;DHT22;57113;48.680;8.890;2022-11-14T16:54:12;12.40;99.90
26304;DHT22;57113;48.680;8.890;2022-11-14T16:56:37;12.40;99.90
26304;DHT22;57113;48.680;8.890;2022-11-14T16:59:03;12.40;99.90
26304;DHT22;57113;48.680;8.890;2022-11-14T17:01:28;12.40;99.90
26304;DHT22;57113;48.680;8.890;2022-11-14T17:03:55;12.40;99.90
26304;DHT22;57113;48.680;8.890;2022-11-14T17:06:21;12.40;99.90